Time;durP1;ratioP1;P1;durP2;ratioP2;P2;SDS_P1;SDS_P2;PMS_P1;PMS_P2;Temp;Humidity;BMP_temperature;BMP_pressure;BME280_temperature;BME280_humidity;BME280_pressure;Samples;Min_cycle;Max_cycle;Signal;HPM_P1;HPM_P2
2022/07/14 00:00:59;;;;;;;7.10;1.80;;;18.10;71.20;;;;;;5094966;28;20107;-45
2022/07/14 00:03:25;;;;;;;7.85;2.05;;;18.00;71.30;;;;;;5094973;28;20028;-44
2022/07/14 00:05:51;;;;;;;6.25;1.80;;;17.90;71.50;;;;;;5095008;28;20085;-45
2022/07/14 00:08:16;;;;;;;7.00;1.63;;;17.80;71.70;;;;;;5093606;28;20017;-45
2022/07/14 00:10:42;;;;;;;4.65;1.85;;;17.80;71.90;;;;;;5094663;28;20073;-45
2022/07/14 00:13:07;;;;;;;11.70;2.67;;;17.70;72.00;;;;;;5094786;28;20028;-46
2022/07/14 00:15:33;;;;;;;6.20;1.80;;;17.70;72.20;;;;;;5094443;28;20020;-46
2022/07/14 00:17:59;;;;;;;4.45;1.60;;;17.60;72.30;;;;;;5092948;28;20479;-45
2022/07/14 00:20:25;;;;;;;7.60;1.75;;;17.60;72.40;;;;;;5094406;28;20383;-46
2022/07/14 00:22:52;;;;;;;6.13;1.80;;;17.60;72.60;;;;;;5094178;28;20130;-46
2022/07/14 00:25:17;;;;;;;5.15;1.50;;;17.50;72.60;;;;;;5094390;28;20024;-45
2022/07/14 00:27:43;;;;;;;5.32;1.55;;;17.50;72.70;;;;;;5094590;28;20075;-45
2022/07/14 00:30:10;;;;;;;7.30;2.05;;;17.50;72.80;;;;;;5094239;28;20086;-46
2022/07/14 00:32:36;;;;;;;8.85;1.60;;;17.40;73.00;;;;;;5093000;28;20025;-45
2022/07/14 00:35:03;;;;;;;6.13;1.77;;;17.40;73.10;;;;;;5094203;28;20027;-45
2022/07/14 00:37:29;;;;;;;8.02;1.70;;;17.40;73.10;;;;;;5094063;28;20081;-45
2022/07/14 00:39:55;;;;;;;7.03;2.10;;;17.40;73.10;;;;;;5093931;28;20479;-44
2022/07/14 00:42:33;;;;;;;4.78;1.63;;;17.40;73.20;;;;;;5092319;28;20102;-45
2022/07/14 00:45:04;;;;;;;6.15;1.88;;;17.50;73.20;;;;;;5093903;28;20103;-45
2022/07/14 00:47:30;;;;;;;5.60;1.48;;;17.50;73.10;;;;;;5093632;28;20030;-44
2022/07/14 00:49:56;;;;;;;4.43;1.58;;;17.60;73.00;;;;;;5093694;28;20028;-44
2022/07/14 00:52:27;;;;;;;5.90;1.80;;;17.60;72.80;;;;;;5094007;28;20012;-45
2022/07/14 00:54:53;;;;;;;5.78;1.60;;;17.70;72.80;;;;;;5094128;28;20089;-45
2022/07/14 00:57:19;;;;;;;8.55;1.63;;;17.70;72.70;;;;;;5094148;28;20505;-44
2022/07/14 00:59:46;;;;;;;5.72;1.73;;;17.70;72.70;;;;;;5093918;28;20356;-45
2022/07/14 01:02:12;;;;;;;5.65;1.67;;;17.80;72.60;;;;;;5093678;28;20368;-44
2022/07/14 01:04:37;;;;;;;7.30;1.60;;;17.80;72.50;;;;;;5093722;28;20148;-45
2022/07/14 01:07:03;;;;;;;7.90;1.70;;;17.90;72.40;;;;;;5093938;28;20054;-45
2022/07/14 01:09:29;;;;;;;4.03;1.60;;;17.80;72.30;;;;;;5093022;28;20081;-45
2022/07/14 01:11:54;;;;;;;7.50;1.90;;;17.80;72.20;;;;;;5093823;28;20016;-45
2022/07/14 01:14:20;;;;;;;4.75;1.70;;;17.80;72.30;;;;;;5093449;28;20031;-43
2022/07/14 01:16:46;;;;;;;4.40;1.48;;;17.80;72.40;;;;;;5093417;28;20020;-45
2022/07/14 01:19:12;;;;;;;7.80;1.88;;;17.70;72.40;;;;;;5093492;28;20432;-45
2022/07/14 01:21:37;;;;;;;7.38;1.58;;;17.70;72.40;;;;;;5093538;28;20031;-45
2022/07/14 01:24:03;;;;;;;6.60;1.90;;;17.70;72.50;;;;;;5093573;28;20478;-45
2022/07/14 01:26:29;;;;;;;7.05;1.60;;;17.60;72.60;;;;;;5093409;28;20017;-46
2022/07/14 01:28:54;;;;;;;9.18;2.00;;;17.50;72.70;;;;;;5093279;28;20027;-44
2022/07/14 01:31:20;;;;;;;7.97;2.03;;;17.40;72.70;;;;;;5093183;28;20031;-44
2022/07/14 01:33:45;;;;;;;9.45;1.85;;;17.30;72.90;;;;;;5092844;28;20023;-46
2022/07/14 01:36:11;;;;;;;4.75;1.58;;;17.30;73.10;;;;;;5092780;28;20031;-45
2022/07/14 01:38:37;;;;;;;7.60;1.70;;;17.30;73.20;;;;;;5092919;28;20024;-45
2022/07/14 01:41:02;;;;;;;5.90;1.60;;;17.20;73.20;;;;;;5092668;28;20024;-45
2022/07/14 01:43:29;;;;;;;6.80;1.73;;;17.20;73.20;;;;;;5092666;28;20039;-45
2022/07/14 01:45:55;;;;;;;5.18;1.48;;;17.20;73.20;;;;;;5092978;28;20024;-45
2022/07/14 01:48:20;;;;;;;5.03;1.38;;;17.10;73.20;;;;;;5092643;28;20028;-45
2022/07/14 01:50:46;;;;;;;7.03;1.58;;;17.10;73.80;;;;;;5092708;28;20106;-45
2022/07/14 01:53:13;;;;;;;6.03;1.48;;;17.10;73.20;;;;;;5091684;28;20333;-45
2022/07/14 01:55:38;;;;;;;7.10;1.95;;;17.10;73.20;;;;;;5092364;28;20077;-45
2022/07/14 01:58:04;;;;;;;8.98;1.80;;;17.10;73.30;;;;;;5092500;28;20028;-45
2022/07/14 02:00:29;;;;;;;6.47;1.70;;;17.00;73.30;;;;;;5092389;28;20024;-43
2022/07/14 02:02:55;;;;;;;8.43;2.00;;;17.00;73.40;;;;;;5092939;28;20024;-45
2022/07/14 02:05:20;;;;;;;7.53;1.77;;;17.00;73.60;;;;;;5092662;28;20408;-44
2022/07/14 02:07:46;;;;;;;5.18;1.40;;;17.00;73.50;;;;;;5092523;28;20488;-44
2022/07/14 02:12:56;;;;;;;8.18;1.73;;;17.00;73.50;;;;;;5092263;28;20027;-45
2022/07/14 02:15:21;;;;;;;5.68;1.70;;;17.00;73.40;;;;;;5092222;28;20519;-45
2022/07/14 02:17:47;;;;;;;4.82;1.50;;;17.00;73.30;;;;;;5092130;28;20094;-45
2022/07/14 02:20:13;;;;;;;5.85;1.63;;;17.00;73.40;;;;;;5092356;28;20034;-45
2022/07/14 02:22:39;;;;;;;6.47;1.70;;;17.00;73.40;;;;;;5092395;28;20031;-45
2022/07/14 02:25:05;;;;;;;7.50;1.80;;;17.00;73.60;;;;;;5092161;28;20141;-45
2022/07/14 02:27:31;;;;;;;6.35;1.80;;;16.90;73.60;;;;;;5091042;28;20305;-45
2022/07/14 02:29:56;;;;;;;5.20;1.75;;;16.80;73.70;;;;;;5092600;28;20035;-45
2022/07/14 02:32:22;;;;;;;7.22;1.70;;;16.80;73.80;;;;;;5092190;28;20102;-45
2022/07/14 02:34:48;;;;;;;9.95;1.90;;;16.80;74.00;;;;;;5092310;28;20452;-45
2022/07/14 02:37:14;;;;;;;5.43;1.70;;;16.70;74.00;;;;;;5092110;28;20027;-45
2022/07/14 02:39:39;;;;;;;5.72;1.67;;;16.70;74.10;;;;;;5091944;28;20038;-46
2022/07/14 02:42:05;;;;;;;7.68;1.75;;;16.60;74.00;;;;;;5092017;28;20020;-48
2022/07/14 02:44:30;;;;;;;5.28;1.40;;;16.60;74.10;;;;;;5092047;28;20043;-45
2022/07/14 02:46:56;;;;;;;6.55;1.58;;;16.60;74.10;;;;;;5091918;28;20020;-44
2022/07/14 02:49:22;;;;;;;5.75;1.60;;;16.60;74.00;;;;;;5090776;28;20035;-44
2022/07/14 02:51:47;;;;;;;7.95;1.40;;;16.70;74.00;;;;;;5092646;28;20020;-45
2022/07/14 02:54:13;;;;;;;6.80;1.63;;;16.70;74.00;;;;;;5094443;28;20028;-44
2022/07/14 02:56:38;;;;;;;5.10;1.40;;;16.70;74.00;;;;;;5096135;28;20111;-45
2022/07/14 02:59:06;;;;;;;8.40;2.00;;;16.70;73.90;;;;;;5096024;28;20387;-45
2022/07/14 03:01:31;;;;;;;11.32;1.48;;;16.70;73.90;;;;;;5094364;28;20020;-45
2022/07/14 03:03:57;;;;;;;6.03;1.90;;;16.70;73.90;;;;;;5096024;28;20395;-45
2022/07/14 03:06:23;;;;;;;11.10;1.83;;;16.70;74.00;;;;;;5096218;28;20432;-45
2022/07/14 03:08:49;;;;;;;10.05;1.70;;;16.70;73.90;;;;;;5095444;28;20032;-41
2022/07/14 03:11:15;;;;;;;5.35;2.20;;;16.60;73.90;;;;;;5095429;28;20034;-45
2022/07/14 03:13:41;;;;;;;7.35;1.70;;;16.60;74.60;;;;;;5096005;28;20095;-45
2022/07/14 03:16:09;;;;;;;4.93;1.70;;;16.60;74.00;;;;;;5095648;28;20387;-45
2022/07/14 03:18:39;;;;;;;4.90;1.70;;;16.60;74.00;;;;;;5095509;28;20018;-46
2022/07/14 03:21:10;;;;;;;5.85;1.50;;;16.60;74.00;;;;;;5095731;28;20031;-49
2022/07/14 03:23:36;;;;;;;7.82;1.52;;;16.60;74.00;;;;;;5095648;28;20024;-45
2022/07/14 03:26:03;;;;;;;4.55;1.40;;;16.60;74.00;;;;;;5095595;28;20372;-46
2022/07/14 03:28:29;;;;;;;7.32;1.40;;;16.60;74.00;;;;;;5095195;28;20119;-44
2022/07/14 03:30:58;;;;;;;6.35;1.63;;;16.60;74.00;;;;;;5095375;28;20024;-45
2022/07/14 03:33:24;;;;;;;9.82;1.77;;;16.60;74.00;;;;;;5095450;28;20035;-45
2022/07/14 03:35:50;;;;;;;5.18;1.40;;;16.60;73.90;;;;;;5095373;28;20115;-45
2022/07/14 03:38:16;;;;;;;5.03;1.40;;;16.60;73.90;;;;;;5095452;28;20444;-44
2022/07/14 03:40:42;;;;;;;4.40;1.58;;;16.60;73.90;;;;;;5094936;28;20027;-44
2022/07/14 03:43:07;;;;;;;7.53;1.50;;;16.60;73.90;;;;;;5095378;28;20020;-44
2022/07/14 03:45:33;;;;;;;6.43;1.50;;;16.50;73.80;;;;;;5095253;28;20032;-45
2022/07/14 03:47:59;;;;;;;7.55;1.63;;;16.50;73.90;;;;;;5095259;28;20544;-44
2022/07/14 03:50:24;;;;;;;4.05;1.40;;;16.50;73.90;;;;;;5095257;28;20032;-46
2022/07/14 03:52:50;;;;;;;6.32;1.45;;;16.50;74.00;;;;;;5094883;28;20060;-45
2022/07/14 03:55:16;;;;;;;6.97;1.45;;;16.40;73.90;;;;;;5094927;28;20024;-45
2022/07/14 03:57:42;;;;;;;6.07;1.40;;;16.40;74.00;;;;;;5094749;28;20016;-47
2022/07/14 04:00:08;;;;;;;8.65;1.60;;;16.40;74.00;;;;;;5094919;28;20055;-44
2022/07/14 04:02:33;;;;;;;6.55;1.67;;;16.30;74.00;;;;;;5094475;28;20028;-45
2022/07/14 04:04:59;;;;;;;6.07;1.38;;;16.30;74.10;;;;;;5093448;28;20505;-45
2022/07/14 04:07:25;;;;;;;5.10;1.60;;;16.30;74.20;;;;;;5095113;28;20060;-44
2022/07/14 04:09:50;;;;;;;7.97;1.90;;;16.30;74.20;;;;;;5094583;28;20044;-44
2022/07/14 04:12:16;;;;;;;6.30;1.55;;;16.30;74.20;;;;;;5094823;28;20491;-44
2022/07/14 04:14:42;;;;;;;3.33;1.40;;;16.30;74.20;;;;;;5094784;28;20081;-44
2022/07/14 04:17:07;;;;;;;5.75;1.63;;;16.30;74.20;;;;;;5094845;28;20451;-45
2022/07/14 04:19:33;;;;;;;4.88;1.50;;;16.30;74.20;;;;;;5094388;28;20096;-44
2022/07/14 04:22:00;;;;;;;4.95;1.58;;;16.30;74.30;;;;;;5094354;28;20020;-45
2022/07/14 04:24:25;;;;;;;7.15;1.60;;;16.30;74.30;;;;;;5093291;28;20024;-45
2022/07/14 04:26:51;;;;;;;7.20;1.50;;;16.30;74.30;;;;;;5094963;28;20020;-44
2022/07/14 04:29:17;;;;;;;8.23;1.60;;;16.30;74.30;;;;;;5094494;28;20024;-44
2022/07/14 04:31:43;;;;;;;6.50;1.52;;;16.30;74.30;;;;;;5094534;28;20367;-43
2022/07/14 04:34:08;;;;;;;6.43;1.60;;;16.30;74.30;;;;;;5094098;28;20475;-45
2022/07/14 04:36:34;;;;;;;6.18;1.60;;;16.30;74.30;;;;;;5094247;28;20472;-48
2022/07/14 04:39:00;;;;;;;7.68;1.52;;;16.30;74.20;;;;;;5093921;28;20035;-45
2022/07/14 04:41:25;;;;;;;9.60;1.77;;;16.40;74.30;;;;;;5094203;28;20032;-46
2022/07/14 04:43:52;;;;;;;6.68;1.98;;;16.30;74.40;;;;;;5093701;28;20436;-45
2022/07/14 04:46:18;;;;;;;6.45;1.60;;;16.30;74.40;;;;;;5093718;28;20479;-45
2022/07/14 04:54:12;;;;;;;6.30;1.63;;;16.30;74.60;;;;;;5094004;28;20105;-45
2022/07/14 04:56:38;;;;;;;5.63;1.67;;;16.30;74.40;;;;;;5093613;28;20031;-45
2022/07/14 04:59:03;;;;;;;8.48;1.70;;;16.40;74.50;;;;;;5093557;28;20032;-45
2022/07/14 05:01:29;;;;;;;7.03;1.55;;;16.50;74.40;;;;;;5092444;28;20028;-44
2022/07/14 05:03:54;;;;;;;5.22;1.60;;;16.50;74.40;;;;;;5093573;28;20084;-44
2022/07/14 05:06:20;;;;;;;10.05;1.60;;;16.50;74.40;;;;;;5093139;28;20028;-45
2022/07/14 05:08:46;;;;;;;8.43;1.80;;;16.50;74.40;;;;;;5093662;28;20025;-45
2022/07/14 05:11:11;;;;;;;5.38;1.58;;;16.50;74.30;;;;;;5092946;28;20088;-44
2022/07/14 05:13:38;;;;;;;6.40;1.63;;;16.60;74.30;;;;;;5093079;28;20020;-45
2022/07/14 05:16:03;;;;;;;5.28;1.70;;;16.60;74.20;;;;;;5092587;28;20043;-45
2022/07/14 05:18:29;;;;;;;9.40;1.52;;;16.60;74.10;;;;;;5092998;28;20020;-44
2022/07/14 05:20:55;;;;;;;6.38;1.50;;;16.60;74.10;;;;;;5093012;28;20117;-44
2022/07/14 05:23:20;;;;;;;8.82;1.80;;;16.60;74.00;;;;;;5093502;28;20038;-45
2022/07/14 05:25:46;;;;;;;5.72;1.70;;;16.60;74.00;;;;;;5091752;28;20020;-45
2022/07/14 05:28:11;;;;;;;6.10;1.92;;;16.60;74.00;;;;;;5093275;28;20039;-44
2022/07/14 05:30:37;;;;;;;6.63;1.58;;;16.60;73.90;;;;;;5092749;28;20064;-44
2022/07/14 05:33:03;;;;;;;6.78;1.73;;;16.70;73.90;;;;;;5092184;28;20043;-44
2022/07/14 05:35:28;;;;;;;6.57;1.50;;;16.70;73.80;;;;;;5092974;28;20078;-44
2022/07/14 05:37:54;;;;;;;6.35;1.42;;;16.70;73.70;;;;;;5092901;28;20356;-44
2022/07/14 05:40:20;;;;;;;6.15;1.70;;;16.80;73.70;;;;;;5093060;28;20052;-45
2022/07/14 05:42:47;;;;;;;4.72;1.30;;;16.80;73.60;;;;;;5092956;28;20032;-44
2022/07/14 05:45:12;;;;;;;4.85;1.40;;;16.80;73.40;;;;;;5092905;28;20391;-44
2022/07/14 05:47:41;;;;;;;7.88;1.63;;;16.80;73.30;;;;;;5093102;28;20440;-44
2022/07/14 05:50:07;;;;;;;6.00;1.52;;;16.90;73.30;;;;;;5093035;28;20076;-44
2022/07/14 05:52:33;;;;;;;4.45;1.33;;;16.80;73.20;;;;;;5093015;28;20024;-44
2022/07/14 05:54:59;;;;;;;4.88;1.45;;;16.80;73.20;;;;;;5092550;28;20113;-44
2022/07/14 05:57:24;;;;;;;5.50;1.75;;;16.90;73.20;;;;;;5092455;28;20051;-44
2022/07/14 05:59:50;;;;;;;3.72;1.30;;;16.90;73.20;;;;;;5092348;28;20036;-43
2022/07/14 06:02:16;;;;;;;8.00;1.60;;;17.00;73.10;;;;;;5092367;28;20017;-44
2022/07/14 06:04:42;;;;;;;6.57;1.50;;;17.00;73.00;;;;;;5092035;28;20034;-45
2022/07/14 06:07:09;;;;;;;5.20;1.50;;;17.00;73.00;;;;;;5092727;28;20021;-46
2022/07/14 06:09:36;;;;;;;8.70;1.50;;;17.00;72.90;;;;;;5092160;28;20448;-45
2022/07/14 06:12:05;;;;;;;3.90;1.52;;;17.00;72.90;;;;;;5092049;28;20365;-45
2022/07/14 06:14:31;;;;;;;7.40;1.63;;;17.10;72.80;;;;;;5092366;28;20077;-44
2022/07/14 06:16:57;;;;;;;4.80;1.35;;;17.10;72.70;;;;;;5092038;28;20468;-44
2022/07/14 06:19:23;;;;;;;6.32;1.80;;;17.10;73.20;;;;;;5092286;28;20066;-44
2022/07/14 06:21:49;;;;;;;4.63;1.33;;;17.20;72.50;;;;;;5092181;28;20028;-44
2022/07/14 06:24:14;;;;;;;4.82;1.40;;;17.20;72.50;;;;;;5092137;28;20069;-46
2022/07/14 06:26:40;;;;;;;7.53;1.60;;;17.20;72.40;;;;;;5094251;28;20492;-44
2022/07/14 06:29:06;;;;;;;8.25;2.30;;;17.30;72.30;;;;;;5096517;28;20386;-44
2022/07/14 06:31:34;;;;;;;6.45;1.67;;;17.30;72.30;;;;;;5096304;28;20375;-45
2022/07/14 06:34:00;;;;;;;3.30;1.30;;;17.40;72.20;;;;;;5096382;28;20032;-44
2022/07/14 06:36:26;;;;;;;5.05;1.40;;;17.40;72.10;;;;;;5096202;28;20101;-45
2022/07/14 06:38:51;;;;;;;3.28;1.38;;;17.40;71.90;;;;;;5096034;28;20089;-44
2022/07/14 06:41:20;;;;;;;7.95;1.73;;;17.40;71.80;;;;;;5096245;28;20453;-45
2022/07/14 06:43:45;;;;;;;6.10;1.67;;;17.50;71.80;;;;;;5096289;28;20016;-44
2022/07/14 06:46:15;;;;;;;4.38;1.35;;;17.50;71.70;;;;;;5096094;28;20034;-44
2022/07/14 06:48:41;;;;;;;6.03;1.48;;;17.50;71.70;;;;;;5096035;28;20084;-44
2022/07/14 06:51:07;;;;;;;6.03;1.30;;;17.50;71.70;;;;;;5095895;28;20028;-45
2022/07/14 06:53:33;;;;;;;5.93;1.70;;;17.60;71.80;;;;;;5096198;28;20023;-45
2022/07/14 06:55:58;;;;;;;5.97;1.40;;;17.70;71.70;;;;;;5095804;28;20012;-45
2022/07/14 06:58:24;;;;;;;4.35;1.50;;;17.70;71.60;;;;;;5095609;28;20039;-45
2022/07/14 07:00:49;;;;;;;8.27;1.90;;;17.80;71.40;;;;;;5095479;28;20055;-44
2022/07/14 07:03:15;;;;;;;5.20;1.60;;;17.80;71.30;;;;;;5095751;28;20054;-46
2022/07/14 07:08:25;;;;;;;5.10;1.20;;;17.90;71.00;;;;;;5095909;28;20067;-46
2022/07/14 07:10:51;;;;;;;4.93;1.23;;;18.00;70.80;;;;;;5095323;28;20064;-44
2022/07/14 07:13:17;;;;;;;4.18;1.23;;;18.00;70.50;;;;;;5094106;28;20016;-45
2022/07/14 07:15:42;;;;;;;4.18;1.10;;;18.10;70.50;;;;;;5095369;28;20069;-45
2022/07/14 07:18:08;;;;;;;5.38;1.48;;;18.10;70.30;;;;;;5095711;28;20481;-45
2022/07/14 07:20:35;;;;;;;5.30;1.20;;;18.10;70.10;;;;;;5095674;28;20024;-44
2022/07/14 07:23:01;;;;;;;5.97;1.40;;;18.20;70.10;;;;;;5094221;28;20028;-44
2022/07/14 07:25:27;;;;;;;5.00;1.13;;;18.30;70.00;;;;;;5095623;28;20035;-44
2022/07/14 07:27:53;;;;;;;5.03;1.23;;;18.30;69.90;;;;;;5095292;28;20024;-44
2022/07/14 07:30:19;;;;;;;6.97;1.35;;;18.40;69.70;;;;;;5095244;28;20028;-44
2022/07/14 07:32:46;;;;;;;4.68;1.50;;;18.50;69.50;;;;;;5095238;28;20031;-44
2022/07/14 07:35:11;;;;;;;4.38;1.40;;;18.60;69.30;;;;;;5095251;28;20221;-44
2022/07/14 07:37:37;;;;;;;4.22;1.23;;;18.60;69.10;;;;;;5094583;28;20141;-45
2022/07/14 07:40:04;;;;;;;5.82;1.30;;;18.70;68.90;;;;;;5095636;28;20035;-44
2022/07/14 07:42:29;;;;;;;2.13;0.80;;;18.80;68.60;;;;;;5095048;28;20024;-44
2022/07/14 07:44:55;;;;;;;5.82;1.40;;;18.90;68.40;;;;;;5095375;28;20024;-45
2022/07/14 07:47:23;;;;;;;3.33;1.25;;;18.90;68.20;;;;;;5094894;28;20472;-43
2022/07/14 07:49:49;;;;;;;4.13;1.20;;;19.00;68.00;;;;;;5095531;28;20509;-44
2022/07/14 07:52:14;;;;;;;6.03;1.25;;;19.10;67.80;;;;;;5095465;28;20170;-44
2022/07/14 07:54:41;;;;;;;5.50;1.20;;;19.20;67.50;;;;;;5095215;28;20051;-44
2022/07/14 07:57:06;;;;;;;7.43;1.13;;;19.30;67.30;;;;;;5095368;28;20360;-44
2022/07/14 07:59:32;;;;;;;4.85;1.23;;;19.30;67.10;;;;;;5095186;28;20063;-44
2022/07/14 08:01:58;;;;;;;4.70;1.15;;;19.40;66.90;;;;;;5094532;28;20497;-44
2022/07/14 08:04:23;;;;;;;6.95;1.10;;;19.40;66.60;;;;;;5094759;28;20031;-44
2022/07/14 08:06:49;;;;;;;6.03;1.00;;;19.40;66.30;;;;;;5094725;28;20063;-45
2022/07/14 08:09:14;;;;;;;3.35;0.90;;;19.50;66.00;;;;;;5094357;28;20472;-45
2022/07/14 08:11:41;;;;;;;3.92;1.08;;;19.50;65.70;;;;;;5093584;28;20016;-44
2022/07/14 08:14:47;;;;;;;3.67;1.52;;;19.60;65.50;;;;;;5094954;28;20016;-44
2022/07/14 08:16:56;;;;;;;2.92;1.00;;;19.60;65.20;;;;;;5094201;28;20040;-45
2022/07/14 08:19:21;;;;;;;4.53;0.90;;;19.70;64.90;;;;;;5094265;28;20586;-42
2022/07/14 08:21:47;;;;;;;3.55;1.00;;;19.80;64.80;;;;;;5095043;28;20020;-45
2022/07/14 08:24:12;;;;;;;3.60;1.17;;;19.80;64.50;;;;;;5094169;28;20115;-44
2022/07/14 08:26:39;;;;;;;4.30;1.10;;;19.90;64.40;;;;;;5094532;28;20435;-44
2022/07/14 08:29:06;;;;;;;4.07;1.20;;;19.90;64.30;;;;;;5094211;28;20020;-43
2022/07/14 08:31:32;;;;;;;3.08;0.80;;;19.90;64.10;;;;;;5094060;28;20041;-45
2022/07/14 08:33:57;;;;;;;4.93;0.98;;;20.00;64.00;;;;;;5094025;28;20030;-44
2022/07/14 08:36:23;;;;;;;4.95;1.30;;;20.10;64.00;;;;;;5094570;28;20089;-44
2022/07/14 08:38:48;;;;;;;5.63;1.10;;;20.20;63.70;;;;;;5094407;28;20034;-45
2022/07/14 08:41:14;;;;;;;3.28;1.20;;;20.20;63.20;;;;;;5094082;28;20127;-43
2022/07/14 08:43:41;;;;;;;3.95;1.13;;;20.20;63.10;;;;;;5094023;28;20024;-44
2022/07/14 08:46:06;;;;;;;4.25;1.10;;;20.30;63.20;;;;;;5094152;28;20149;-44
2022/07/14 08:48:33;;;;;;;3.60;1.10;;;20.40;63.00;;;;;;5094090;28;20024;-44
2022/07/14 08:51:00;;;;;;;3.20;0.90;;;20.40;62.70;;;;;;5092643;28;20028;-44
2022/07/14 08:53:27;;;;;;;4.70;1.10;;;20.50;62.40;;;;;;5092341;28;20012;-46
2022/07/14 08:55:52;;;;;;;2.50;0.85;;;20.60;62.10;;;;;;5093687;28;20498;-44
2022/07/14 08:58:18;;;;;;;2.58;1.05;;;20.60;61.90;;;;;;5092330;28;20024;-44
2022/07/14 09:00:43;;;;;;;2.53;0.88;;;20.70;62.40;;;;;;5093446;28;20020;-44
2022/07/14 09:03:09;;;;;;;3.15;1.05;;;20.80;61.50;;;;;;5093624;28;20096;-44
2022/07/14 09:05:40;;;;;;;3.72;1.20;;;20.90;61.20;;;;;;5093653;28;20023;-44
2022/07/14 09:08:06;;;;;;;2.38;0.80;;;21.00;60.80;;;;;;5093245;28;20042;-48
2022/07/14 09:10:31;;;;;;;2.50;0.88;;;21.00;60.70;;;;;;5093191;28;20371;-44
2022/07/14 09:13:31;;;;;;;2.80;0.80;;;21.10;60.50;;;;;;5093405;28;20403;-44
2022/07/14 09:16:36;;;;;;;3.50;0.80;;;21.20;60.20;;;;;;5070145;28;20024;-44
2022/07/14 09:19:20;;;;;;;2.25;0.90;;;21.30;60.00;;;;;;5070698;28;20036;-44
2022/07/14 09:21:53;;;;;;;3.72;0.90;;;21.40;59.80;;;;;;5070475;28;20033;-49
2022/07/14 09:24:21;;;;;;;2.88;0.80;;;21.40;59.50;;;;;;5077519;28;20089;-45
2022/07/14 09:26:49;;;;;;;1.95;0.68;;;21.40;59.40;;;;;;5091640;28;20031;-45
2022/07/14 09:29:17;;;;;;;3.13;1.10;;;21.50;59.40;;;;;;5092935;28;20028;-44
2022/07/14 09:31:44;;;;;;;2.55;0.73;;;21.50;59.10;;;;;;5092831;28;20024;-45
2022/07/14 09:34:22;;;;;;;3.05;0.90;;;21.60;59.00;;;;;;5091707;28;20020;-45
2022/07/14 09:36:49;;;;;;;3.03;0.80;;;21.70;58.60;;;;;;5093081;28;20077;-45
2022/07/14 09:39:15;;;;;;;5.10;1.08;;;21.80;58.40;;;;;;5092720;28;20495;-45
2022/07/14 09:41:59;;;;;;;1.88;0.90;;;21.90;58.20;;;;;;5092920;28;20039;-45
2022/07/14 09:44:25;;;;;;;2.33;0.93;;;21.90;57.80;;;;;;5093012;28;20028;-44
2022/07/14 09:46:54;;;;;;;1.83;0.90;;;21.90;57.70;;;;;;5093000;28;20024;-44
2022/07/14 09:49:23;;;;;;;2.95;1.00;;;21.90;57.60;;;;;;5093183;28;20028;-44
2022/07/14 09:51:54;;;;;;;2.55;0.88;;;22.00;57.40;;;;;;5092701;28;20157;-44
2022/07/14 09:54:39;;;;;;;2.72;0.80;;;22.00;57.20;;;;;;5092996;28;20066;-45
2022/07/14 09:57:18;;;;;;;1.58;0.60;;;22.00;57.00;;;;;;5093050;28;20424;-44
2022/07/14 10:00:05;;;;;;;3.13;0.80;;;22.10;56.70;;;;;;5092574;28;20027;-44
2022/07/14 10:02:31;;;;;;;1.27;0.73;;;22.10;56.30;;;;;;5092380;28;20095;-44
2022/07/14 10:05:01;;;;;;;3.72;0.80;;;22.20;55.80;;;;;;5092938;28;20051;-44
2022/07/14 10:07:29;;;;;;;3.08;0.88;;;22.30;55.30;;;;;;5092808;28;20113;-35
2022/07/14 10:10:12;;;;;;;1.90;0.75;;;22.40;55.00;;;;;;5092371;28;20193;-37
2022/07/14 10:12:41;;;;;;;3.45;0.82;;;22.40;54.30;;;;;;5092324;28;20048;-37
2022/07/14 10:15:10;;;;;;;2.35;0.88;;;22.40;54.30;;;;;;5092411;28;20012;-37
2022/07/14 10:17:38;;;;;;;1.60;0.80;;;22.40;54.30;;;;;;5092862;28;20027;-37
2022/07/14 10:20:11;;;;;;;1.33;0.82;;;22.50;54.00;;;;;;5092116;28;20027;-41
2022/07/14 10:22:37;;;;;;;1.98;0.82;;;22.60;53.90;;;;;;5091999;28;20059;-38
2022/07/14 10:25:05;;;;;;;2.55;0.85;;;22.70;53.70;;;;;;5091323;28;20034;-37
2022/07/14 10:27:31;;;;;;;1.65;0.60;;;22.80;53.40;;;;;;5090901;28;20081;-36
2022/07/14 10:29:58;;;;;;;1.55;0.65;;;22.80;53.00;;;;;;5092347;28;20047;-38
2022/07/14 10:32:44;;;;;;;1.30;0.73;;;22.90;52.80;;;;;;5091089;28;20118;-36
2022/07/14 10:35:15;;;;;;;1.40;0.80;;;22.90;52.40;;;;;;5092129;28;20031;-37
2022/07/14 10:37:59;;;;;;;2.22;0.70;;;22.90;52.50;;;;;;5092105;28;20020;-38
2022/07/14 10:40:30;;;;;;;2.97;0.88;;;23.00;52.10;;;;;;5092237;28;20050;-36
2022/07/14 10:43:08;;;;;;;1.33;0.70;;;23.10;51.90;;;;;;5091886;28;20103;-38
2022/07/14 10:45:45;;;;;;;3.05;0.85;;;23.10;51.40;;;;;;5091905;28;20056;-36
2022/07/14 10:48:30;;;;;;;1.95;0.70;;;23.10;51.30;;;;;;5091883;28;20028;-37
2022/07/14 10:51:15;;;;;;;2.80;0.90;;;23.20;51.20;;;;;;5091658;28;20016;-37
2022/07/14 10:54:18;;;;;;;3.13;1.30;;;23.50;50.40;;;;;;5091819;28;20024;-38
2022/07/14 10:56:45;;;;;;;3.13;0.90;;;23.60;49.60;;;;;;5091676;28;20104;-37
2022/07/14 10:59:26;;;;;;;1.65;0.88;;;23.80;49.40;;;;;;5091923;28;20467;-38
2022/07/14 11:02:10;;;;;;;2.83;1.17;;;23.90;49.00;;;;;;5092005;28;20028;-41
2022/07/14 11:04:58;;;;;;;1.98;1.00;;;24.00;48.90;;;;;;5092016;28;20032;-37
2022/07/14 11:07:41;;;;;;;2.65;0.90;;;24.10;48.80;;;;;;5091777;28;20483;-36
2022/07/14 11:10:19;;;;;;;2.28;1.05;;;24.10;48.60;;;;;;5091626;28;20095;-37
2022/07/14 11:13:03;;;;;;;2.47;1.00;;;24.20;48.10;;;;;;5092118;28;20029;-38
2022/07/14 11:15:42;;;;;;;1.55;0.80;;;24.10;48.20;;;;;;5095220;28;20032;-38
2022/07/14 11:18:26;;;;;;;2.60;0.95;;;24.20;48.50;;;;;;5095377;28;20036;-37
2022/07/14 11:21:00;;;;;;;2.55;1.38;;;24.20;48.60;;;;;;5095319;28;20042;-36
2022/07/14 11:23:30;;;;;;;2.72;0.90;;;24.30;48.60;;;;;;5095413;28;20536;-43
2022/07/14 11:25:59;;;;;;;2.22;0.90;;;24.30;48.40;;;;;;5095508;28;20362;-37
2022/07/14 11:28:31;;;;;;;1.30;0.93;;;24.30;48.50;;;;;;5095036;28;20125;-36
2022/07/14 11:31:18;;;;;;;2.83;1.48;;;24.50;48.60;;;;;;5095789;28;20047;-38
2022/07/14 11:37:03;;;;;;;2.20;0.88;;;24.50;48.10;;;;;;5095140;28;20062;-38
2022/07/14 11:39:37;;;;;;;2.80;1.00;;;24.50;47.80;;;;;;5095338;28;20027;-37
2022/07/14 11:42:13;;;;;;;0.73;0.63;;;24.40;47.70;;;;;;5095371;28;20111;-38
2022/07/14 11:44:39;;;;;;;2.72;0.95;;;24.50;47.90;;;;;;5095268;28;20024;-38
2022/07/14 11:47:24;;;;;;;2.38;0.85;;;24.50;48.00;;;;;;5094959;28;20031;-37
2022/07/14 11:49:55;;;;;;;3.45;1.05;;;24.50;48.30;;;;;;5093503;28;20031;-38
2022/07/14 11:52:32;;;;;;;1.88;1.00;;;24.50;48.30;;;;;;5095042;28;20019;-38
2022/07/14 11:55:00;;;;;;;1.42;0.60;;;24.50;47.60;;;;;;5094769;28;20503;-37
2022/07/14 11:57:27;;;;;;;2.80;0.90;;;24.50;47.80;;;;;;5094990;28;20043;-36
2022/07/14 11:59:53;;;;;;;1.38;0.65;;;24.60;47.90;;;;;;5093215;28;20028;-37
2022/07/14 12:02:21;;;;;;;1.77;0.88;;;24.70;47.90;;;;;;5094779;28;20027;-38
2022/07/14 12:04:53;;;;;;;1.85;0.85;;;24.80;47.70;;;;;;5094857;28;20078;-37
2022/07/14 12:07:23;;;;;;;1.80;0.68;;;24.80;47.20;;;;;;5094816;28;20428;-37
2022/07/14 12:09:49;;;;;;;1.73;0.70;;;24.70;46.90;;;;;;5094359;28;20057;-44
2022/07/14 12:12:17;;;;;;;1.77;0.70;;;24.70;47.10;;;;;;5094683;28;20028;-37
2022/07/14 12:14:44;;;;;;;2.67;0.88;;;24.70;47.00;;;;;;5094605;28;20428;-37
2022/07/14 12:17:09;;;;;;;2.20;0.88;;;24.70;46.90;;;;;;5094563;28;20039;-37
2022/07/14 12:19:36;;;;;;;1.80;0.93;;;24.70;46.80;;;;;;5094603;28;20464;-37
2022/07/14 12:22:04;;;;;;;2.10;0.63;;;24.70;46.60;;;;;;5094609;28;20039;-37
2022/07/14 12:24:31;;;;;;;1.90;0.80;;;24.70;46.50;;;;;;5094310;28;20031;-37
2022/07/14 12:27:04;;;;;;;1.05;0.60;;;24.70;46.40;;;;;;5094520;28;20020;-36
2022/07/14 12:29:30;;;;;;;3.88;0.90;;;24.80;46.40;;;;;;5094221;28;20426;-37
2022/07/14 12:31:57;;;;;;;3.67;0.80;;;24.90;46.60;;;;;;5094176;28;20031;-37
2022/07/14 12:34:23;;;;;;;1.48;0.75;;;25.10;46.50;;;;;;5094212;28;20042;-36
2022/07/14 12:36:50;;;;;;;1.10;0.50;;;25.20;46.30;;;;;;5094124;28;20129;-37
2022/07/14 12:39:16;;;;;;;3.83;1.13;;;25.30;46.30;;;;;;5094208;28;20020;-37
2022/07/14 12:41:44;;;;;;;2.47;0.75;;;25.30;45.80;;;;;;5094442;28;20051;-37
2022/07/14 12:44:10;;;;;;;2.40;0.70;;;25.40;45.50;;;;;;5094269;28;20154;-37
2022/07/14 12:46:36;;;;;;;2.20;0.75;;;25.50;45.50;;;;;;5093875;28;20113;-37
2022/07/14 12:49:07;;;;;;;2.10;0.70;;;25.60;45.20;;;;;;5093794;28;20032;-37
2022/07/14 12:51:43;;;;;;;1.48;0.70;;;25.60;44.40;;;;;;5093600;28;20717;-37
2022/07/14 12:54:18;;;;;;;2.30;0.80;;;25.70;43.90;;;;;;5094177;28;20375;-37
2022/07/14 12:56:43;;;;;;;1.83;0.70;;;25.70;43.80;;;;;;5093978;28;20445;-40
2022/07/14 12:59:21;;;;;;;2.25;0.70;;;25.80;43.30;;;;;;5093978;28;20052;-37
2022/07/14 13:02:04;;;;;;;1.58;0.70;;;25.80;43.40;;;;;;5093772;28;20491;-37
2022/07/14 13:04:34;;;;;;;2.88;0.90;;;25.80;43.00;;;;;;5093557;28;20149;-37